createdAt,value
2023-04-15T00:02:05.997Z,100.00
2023-04-15T00:04:37.759Z,100.00
2023-04-15T00:07:07.550Z,100.00
2023-04-15T00:09:37.627Z,100.00
2023-04-15T00:12:07.469Z,100.00
2023-04-15T00:14:37.895Z,100.00
2023-04-15T00:17:08.883Z,100.00
2023-04-15T00:19:38.987Z,100.00
2023-04-15T00:22:09.514Z,100.00
2023-04-15T00:24:39.538Z,100.00
2023-04-15T00:27:09.118Z,100.00
2023-04-15T00:29:39.120Z,100.00
2023-04-15T00:32:10.320Z,100.00
2023-04-15T00:34:40.221Z,100.00
2023-04-15T00:37:10.984Z,100.00
2023-04-15T00:39:41.149Z,100.00
2023-04-15T00:42:11.344Z,100.00
2023-04-15T00:44:41.350Z,100.00
2023-04-15T00:47:13.138Z,100.00
2023-04-15T00:49:43.070Z,100.00
2023-04-15T00:52:12.657Z,100.00
2023-04-15T00:54:42.750Z,100.00
2023-04-15T00:57:12.451Z,100.00
2023-04-15T00:59:42.536Z,100.00
2023-04-15T01:02:14.791Z,100.00
2023-04-15T01:04:45.379Z,100.00
2023-04-15T01:07:15.289Z,100.00
2023-04-15T01:09:45.939Z,100.00
2023-04-15T01:12:16.664Z,100.00
2023-04-15T01:14:46.943Z,100.00
2023-04-15T01:17:17.974Z,100.00
2023-04-15T01:19:48.138Z,100.00
2023-04-15T01:22:17.879Z,100.00
2023-04-15T01:24:52.538Z,100.00
2023-04-15T01:27:24.045Z,100.00
2023-04-15T01:29:54.155Z,100.00
2023-04-15T01:32:23.900Z,100.00
2023-04-15T01:34:56.988Z,100.00
2023-04-15T01:37:27.866Z,100.00
2023-04-15T01:39:58.763Z,100.00
2023-04-15T01:42:29.894Z,100.00
2023-04-15T01:44:59.852Z,100.00
2023-04-15T01:47:29.640Z,100.00
2023-04-15T01:49:59.650Z,100.00
2023-04-15T01:52:31.450Z,100.00
2023-04-15T01:55:01.374Z,100.00
2023-04-15T01:57:32.471Z,100.00
2023-04-15T02:00:02.514Z,100.00
2023-04-15T02:02:42.857Z,100.00
2023-04-15T02:05:12.869Z,100.00
2023-04-15T02:07:42.818Z,100.00
2023-04-15T02:10:13.774Z,100.00
2023-04-15T02:12:44.884Z,100.00
2023-04-15T02:15:15.969Z,100.00
2023-04-15T02:17:51.631Z,100.00
2023-04-15T02:20:22.740Z,100.00
2023-04-15T02:22:52.798Z,100.00
2023-04-15T02:25:22.683Z,100.00
2023-04-15T02:27:54.003Z,100.00
2023-04-15T02:30:25.771Z,100.00
2023-04-15T02:32:56.317Z,100.00
2023-04-15T02:35:28.295Z,100.00
2023-04-15T02:37:58.512Z,100.00
2023-04-15T02:40:29.121Z,100.00
2023-04-15T02:43:00.993Z,100.00
2023-04-15T02:45:31.940Z,100.00
2023-04-15T02:48:06.784Z,100.00
2023-04-15T02:50:38.124Z,100.00
2023-04-15T02:53:08.011Z,100.00
2023-04-15T02:55:38.002Z,100.00
2023-04-15T02:58:09.144Z,100.00
2023-04-15T03:00:39.074Z,100.00
2023-04-15T03:03:09.402Z,100.00
2023-04-15T03:05:40.422Z,100.00
2023-04-15T03:08:10.810Z,100.00
2023-04-15T03:10:40.707Z,100.00
2023-04-15T03:13:11.776Z,100.00
2023-04-15T03:15:42.331Z,100.00
2023-04-15T03:18:12.692Z,100.00
2023-04-15T03:20:44.206Z,100.00
2023-04-15T03:23:13.918Z,100.00
2023-04-15T03:25:44.020Z,100.00
2023-04-15T03:28:15.346Z,100.00
2023-04-15T03:30:45.377Z,100.00
2023-04-15T03:33:15.009Z,100.00
2023-04-15T03:35:45.227Z,100.00
2023-04-15T03:38:15.933Z,100.00
2023-04-15T03:40:46.099Z,100.00
2023-04-15T03:43:17.370Z,100.00
2023-04-15T03:45:47.421Z,100.00
2023-04-15T03:48:18.358Z,100.00
2023-04-15T03:50:48.616Z,100.00
2023-04-15T03:53:18.231Z,100.00
2023-04-15T03:55:48.244Z,100.00
2023-04-15T03:58:19.442Z,100.00
2023-04-15T04:00:49.571Z,100.00
2023-04-15T04:03:19.434Z,100.00
2023-04-15T04:05:49.776Z,100.00
2023-04-15T04:08:19.898Z,100.00
2023-04-15T04:10:51.048Z,100.00
2023-04-15T04:13:22.086Z,100.00
2023-04-15T04:15:53.438Z,100.00
2023-04-15T04:18:23.309Z,100.00
2023-04-15T04:20:53.665Z,100.00
2023-04-15T04:23:23.229Z,100.00
2023-04-15T04:25:53.848Z,100.00
2023-04-15T04:28:24.789Z,100.00
2023-04-15T04:30:54.997Z,100.00
2023-04-15T04:33:24.594Z,100.00
2023-04-15T04:35:54.565Z,100.00
2023-04-15T04:38:24.246Z,100.00
2023-04-15T04:40:54.265Z,100.00
2023-04-15T04:43:25.676Z,100.00
2023-04-15T04:45:55.732Z,100.00
2023-04-15T04:48:25.418Z,100.00
2023-04-15T04:50:55.560Z,100.00
2023-04-15T04:53:25.138Z,100.00
2023-04-15T04:55:55.162Z,100.00
2023-04-15T04:58:26.798Z,100.00
2023-04-15T05:00:57.278Z,100.00
2023-04-15T05:03:27.705Z,100.00
2023-04-15T05:05:57.826Z,100.00
2023-04-15T05:08:27.435Z,100.00
2023-04-15T05:10:58.173Z,100.00
2023-04-15T05:13:30.356Z,100.00
2023-04-15T05:16:00.261Z,100.00
2023-04-15T05:18:29.943Z,100.00
2023-04-15T05:21:00.178Z,100.00
2023-04-15T05:23:29.912Z,100.00
2023-04-15T05:25:59.790Z,100.00
2023-04-15T05:28:31.379Z,100.00
2023-04-15T05:31:01.806Z,100.00
2023-04-15T05:33:31.619Z,100.00
2023-04-15T05:36:01.485Z,100.00
2023-04-15T05:38:31.475Z,100.00
2023-04-15T05:41:01.705Z,100.00
2023-04-15T05:43:33.028Z,100.00
2023-04-15T05:46:03.124Z,100.00
2023-04-15T05:48:32.961Z,100.00
2023-04-15T05:51:03.032Z,100.00
2023-04-15T05:53:32.980Z,100.00
2023-04-15T05:56:03.157Z,100.00
2023-04-15T05:58:34.376Z,100.00
2023-04-15T06:01:04.672Z,100.00
2023-04-15T06:03:34.730Z,100.00
2023-04-15T06:06:04.789Z,100.00
2023-04-15T06:08:34.510Z,100.00
2023-04-15T06:11:04.500Z,100.00
2023-04-15T06:13:35.606Z,100.00
2023-04-15T06:16:05.831Z,100.00
2023-04-15T06:18:35.459Z,100.00
2023-04-15T06:21:05.390Z,100.00
2023-04-15T06:23:36.515Z,100.00
2023-04-15T06:26:06.587Z,100.00
2023-04-15T06:28:37.768Z,100.00
2023-04-15T06:31:07.970Z,100.00
2023-04-15T06:33:37.739Z,100.00
2023-04-15T06:36:07.936Z,100.00
2023-04-15T06:38:37.663Z,100.00
2023-04-15T06:41:07.919Z,98.66
2023-04-15T06:43:39.067Z,98.08
2023-04-15T06:46:09.301Z,96.31
2023-04-15T06:48:39.163Z,97.15
2023-04-15T06:51:09.253Z,97.27
2023-04-15T06:53:41.465Z,96.46
2023-04-15T06:56:11.622Z,95.43
2023-04-15T06:58:42.805Z,94.83
2023-04-15T07:01:14.397Z,96.56
2023-04-15T07:03:44.385Z,95.62
2023-04-15T07:06:14.629Z,95.31
2023-04-15T07:08:44.359Z,93.28
2023-04-15T07:11:14.484Z,92.29
2023-04-15T07:14:45.914Z,92.95
2023-04-15T07:21:16.714Z,92.70
2023-04-15T07:23:46.217Z,92.21
2023-04-15T07:26:16.083Z,91.62
2023-04-15T07:28:47.228Z,91.62
2023-04-15T07:31:18.009Z,92.24
2023-04-15T07:33:47.676Z,90.67
2023-04-15T07:36:19.446Z,92.43
2023-04-15T07:38:49.325Z,91.09
2023-04-15T07:41:20.729Z,90.34
2023-04-15T07:43:51.423Z,90.63
2023-04-15T07:46:21.953Z,89.41
2023-04-15T07:48:51.652Z,90.15
2023-04-15T07:51:23.579Z,88.59
2023-04-15T07:53:54.329Z,87.20
2023-04-15T07:56:26.221Z,86.85
2023-04-15T07:58:56.063Z,86.32
2023-04-15T08:01:26.189Z,86.12
2023-04-15T08:03:56.079Z,86.22
2023-04-15T08:06:28.035Z,87.39
2023-04-15T08:08:57.855Z,85.42
2023-04-15T08:11:28.742Z,86.31
2023-04-15T08:13:58.336Z,86.01
2023-04-15T08:16:28.991Z,86.35
2023-04-15T08:18:58.957Z,86.25
2023-04-15T08:21:31.970Z,85.59
2023-04-15T08:24:05.414Z,85.10
2023-04-15T08:26:37.893Z,86.31
2023-04-15T08:29:07.532Z,85.18
2023-04-15T08:31:37.889Z,83.64
2023-04-15T08:34:08.474Z,83.99
2023-04-15T08:36:41.047Z,83.56
2023-04-15T08:39:10.874Z,82.23
2023-04-15T08:41:42.304Z,83.24
2023-04-15T08:44:12.088Z,82.17
2023-04-15T08:46:42.930Z,81.79
2023-04-15T08:49:13.487Z,81.85
2023-04-15T08:51:45.606Z,81.73
2023-04-15T08:54:15.371Z,81.92
2023-04-15T08:56:45.605Z,82.06
2023-04-15T08:59:15.438Z,82.40
2023-04-15T09:01:45.853Z,82.61
2023-04-15T09:04:16.096Z,84.03
2023-04-15T09:06:47.750Z,83.25
2023-04-15T09:09:17.352Z,84.31
2023-04-15T09:11:47.335Z,84.24
2023-04-15T09:14:17.285Z,83.97
2023-04-15T09:16:59.965Z,84.81
2023-04-15T09:19:30.161Z,84.35
2023-04-15T09:22:02.371Z,85.29
2023-04-15T09:24:37.749Z,84.19
2023-04-15T09:27:08.175Z,83.95
2023-04-15T09:29:38.038Z,83.41
2023-04-15T09:32:12.184Z,84.94
2023-04-15T09:34:42.200Z,83.05
2023-04-15T09:37:28.614Z,83.79
2023-04-15T09:40:01.386Z,83.89
2023-04-15T09:42:32.927Z,83.55
2023-04-15T09:45:10.372Z,83.74
2023-04-15T09:47:40.941Z,84.67
2023-04-15T09:50:11.403Z,84.95
2023-04-15T09:52:44.827Z,85.23
2023-04-15T09:55:15.533Z,85.26
2023-04-15T09:57:47.568Z,85.71
2023-04-15T10:00:17.587Z,85.70
2023-04-15T10:02:49.411Z,85.53
2023-04-15T10:05:19.668Z,84.55
2023-04-15T10:07:51.423Z,85.70
2023-04-15T10:10:21.543Z,85.03
2023-04-15T10:12:53.426Z,84.34
2023-04-15T10:15:28.458Z,84.18
2023-04-15T10:18:00.307Z,84.83
2023-04-15T10:24:06.565Z,83.55
2023-04-15T10:26:36.690Z,83.74
2023-04-15T10:29:07.058Z,84.42
2023-04-15T10:31:38.602Z,82.01
2023-04-15T10:34:09.713Z,81.91
2023-04-15T10:36:39.368Z,80.51
2023-04-15T10:42:14.218Z,80.77
2023-04-15T10:44:45.066Z,82.03
2023-04-15T10:47:15.826Z,81.19
2023-04-15T10:49:47.345Z,80.72
2023-04-15T10:52:18.558Z,82.40
2023-04-15T10:54:48.849Z,81.35
2023-04-15T10:57:23.475Z,80.26
2023-04-15T11:00:07.025Z,80.02
2023-04-15T11:02:44.955Z,80.39
2023-04-15T11:05:16.427Z,80.97
2023-04-15T11:07:51.400Z,80.89
2023-04-15T11:10:55.352Z,80.71
2023-04-15T11:13:29.795Z,82.45
2023-04-15T11:16:04.757Z,81.12
2023-04-15T11:18:38.315Z,81.98
2023-04-15T11:21:10.693Z,81.24
2023-04-15T11:23:48.828Z,82.33
2023-04-15T11:26:19.644Z,81.75
2023-04-15T11:28:50.306Z,81.73
2023-04-15T11:31:25.845Z,81.30
2023-04-15T11:33:58.362Z,82.23
2023-04-15T11:36:28.952Z,84.84
2023-04-15T11:39:01.408Z,85.08
2023-04-15T11:41:32.762Z,84.24
2023-04-15T11:44:02.754Z,86.29
2023-04-15T11:46:38.671Z,86.28
2023-04-15T11:49:10.373Z,84.66
2023-04-15T11:51:40.486Z,84.99
2023-04-15T11:54:10.039Z,84.62
2023-04-15T11:56:40.069Z,85.07
2023-04-15T11:59:09.631Z,85.28
2023-04-15T12:01:42.719Z,85.57
2023-04-15T12:04:16.893Z,85.55
2023-04-15T12:06:47.344Z,86.48
2023-04-15T12:09:20.781Z,84.69
2023-04-15T12:11:53.156Z,85.55
2023-04-15T12:14:25.984Z,85.56
2023-04-15T12:17:00.637Z,85.53
2023-04-15T12:19:32.808Z,86.05
2023-04-15T12:22:04.466Z,85.04
2023-04-15T12:24:34.668Z,86.16
2023-04-15T12:27:05.921Z,86.14
2023-04-15T12:29:36.349Z,87.74
2023-04-15T12:32:08.867Z,86.52
2023-04-15T12:34:39.373Z,86.68
2023-04-15T12:37:11.078Z,87.46
2023-04-15T12:39:41.517Z,88.16
2023-04-15T12:42:12.096Z,89.45
2023-04-15T12:44:41.723Z,88.87
2023-04-15T12:47:13.770Z,89.52
2023-04-15T12:49:43.390Z,88.73
2023-04-15T12:52:13.912Z,90.05
2023-04-15T12:54:43.712Z,90.27
2023-04-15T12:57:13.763Z,89.57
2023-04-15T12:59:43.445Z,91.18
2023-04-15T13:02:14.945Z,91.42
2023-04-15T13:04:44.770Z,90.36
2023-04-15T13:07:15.914Z,88.73
2023-04-15T13:09:45.393Z,88.99
2023-04-15T13:12:16.518Z,90.38
2023-04-15T13:14:46.078Z,90.33
2023-04-15T13:17:20.706Z,91.01
2023-04-15T13:19:50.355Z,90.95
2023-04-15T13:22:20.401Z,91.53
2023-04-15T13:24:49.943Z,91.63
2023-04-15T13:27:20.233Z,92.26
2023-04-15T13:29:49.803Z,93.19
2023-04-15T13:32:21.241Z,92.88
2023-04-15T13:34:50.843Z,92.79
2023-04-15T13:37:21.323Z,92.53
2023-04-15T13:39:50.975Z,93.91
2023-04-15T13:42:21.182Z,93.57
2023-04-15T13:44:51.678Z,93.35
2023-04-15T13:47:23.222Z,93.39
2023-04-15T13:49:54.454Z,94.20
2023-04-15T13:52:24.732Z,94.06
2023-04-15T13:55:19.546Z,94.22
2023-04-15T13:57:44.512Z,94.36
2023-04-15T14:00:15.171Z,94.79
2023-04-15T14:02:46.976Z,94.99
2023-04-15T14:05:17.000Z,94.42
2023-04-15T14:07:47.084Z,95.06
2023-04-15T14:10:16.872Z,94.88
2023-04-15T14:12:46.822Z,95.26
2023-04-15T14:15:16.719Z,94.79
2023-04-15T14:17:48.210Z,95.70
2023-04-15T14:20:17.960Z,95.47
2023-04-15T14:22:47.978Z,95.54
2023-04-15T14:25:26.926Z,95.20
2023-04-15T14:28:03.684Z,95.84
2023-04-15T14:30:34.441Z,96.02
2023-04-15T14:33:06.001Z,94.80
2023-04-15T14:35:35.730Z,96.43
2023-04-15T14:38:06.977Z,96.70
2023-04-15T14:40:36.699Z,96.93
2023-04-15T14:43:06.724Z,97.21
2023-04-15T14:45:36.717Z,97.75
2023-04-15T14:48:10.148Z,97.16
2023-04-15T14:50:39.754Z,97.79
2023-04-15T14:53:09.650Z,97.51
2023-04-15T14:55:39.384Z,98.79
2023-04-15T14:58:09.750Z,99.54
2023-04-15T15:00:42.203Z,99.41
2023-04-15T15:03:14.238Z,100.00
2023-04-15T15:05:44.551Z,100.00
2023-04-15T15:08:15.212Z,100.00
2023-04-15T15:10:49.432Z,100.00
2023-04-15T15:13:20.392Z,100.00
2023-04-15T15:15:50.656Z,100.00
2023-04-15T15:18:22.231Z,100.00
2023-04-15T15:20:53.132Z,100.00
2023-04-15T15:23:23.135Z,100.00
2023-04-15T15:25:52.874Z,100.00
2023-04-15T15:28:23.346Z,100.00
2023-04-15T15:30:53.101Z,100.00
2023-04-15T15:33:25.140Z,100.00
2023-04-15T15:35:54.984Z,100.00
2023-04-15T15:38:25.274Z,100.00
2023-04-15T15:40:54.893Z,100.00
2023-04-15T15:43:24.911Z,100.00
2023-04-15T15:45:55.809Z,100.00
2023-04-15T15:48:27.252Z,100.00
2023-04-15T15:50:56.949Z,100.00
2023-04-15T15:53:27.302Z,100.00
2023-04-15T15:55:56.995Z,100.00
2023-04-15T15:58:27.253Z,100.00
2023-04-15T16:00:56.920Z,100.00
2023-04-15T16:03:28.466Z,100.00
2023-04-15T16:05:58.292Z,100.00
2023-04-15T16:08:28.090Z,100.00
2023-04-15T16:10:57.573Z,100.00
2023-04-15T16:13:27.575Z,100.00
2023-04-15T16:15:57.232Z,100.00
2023-04-15T16:18:28.622Z,100.00
2023-04-15T16:20:58.221Z,100.00
2023-04-15T16:23:28.152Z,100.00
2023-04-15T16:25:58.017Z,100.00
2023-04-15T16:28:27.908Z,100.00
2023-04-15T16:30:57.746Z,100.00
2023-04-15T16:33:29.045Z,100.00
2023-04-15T16:35:58.721Z,100.00
2023-04-15T16:38:28.763Z,100.00
2023-04-15T16:41:00.440Z,100.00
2023-04-15T16:43:30.699Z,100.00
2023-04-15T16:46:00.413Z,100.00
2023-04-15T16:48:32.121Z,100.00
2023-04-15T16:51:01.748Z,100.00
2023-04-15T16:53:31.848Z,100.00
2023-04-15T16:56:01.592Z,100.00
2023-04-15T16:58:32.022Z,100.00
2023-04-15T17:01:01.849Z,100.00
2023-04-15T17:03:33.760Z,100.00
2023-04-15T17:06:03.804Z,100.00
2023-04-15T17:08:33.690Z,100.00
2023-04-15T17:11:03.398Z,100.00
2023-04-15T17:13:33.700Z,100.00
2023-04-15T17:16:03.719Z,100.00
2023-04-15T17:18:35.656Z,100.00
2023-04-15T17:21:06.651Z,100.00
2023-04-15T17:23:36.780Z,100.00
2023-04-15T17:26:06.574Z,100.00
2023-04-15T17:28:39.730Z,100.00
2023-04-15T17:31:10.511Z,100.00
2023-04-15T17:34:01.087Z,100.00
2023-04-15T17:36:32.584Z,100.00
2023-04-15T17:39:04.146Z,100.00
2023-04-15T17:41:34.153Z,100.00
2023-04-15T17:44:05.632Z,100.00
2023-04-15T17:46:35.457Z,100.00
2023-04-15T17:49:07.494Z,100.00
2023-04-15T17:51:37.185Z,100.00
2023-04-15T17:54:10.395Z,100.00
2023-04-15T17:56:41.358Z,100.00
2023-04-15T17:59:11.991Z,100.00
2023-04-15T18:01:42.778Z,100.00
2023-04-15T18:04:14.515Z,100.00
2023-04-15T18:06:44.344Z,100.00
2023-04-15T18:09:14.274Z,100.00
2023-04-15T18:11:45.573Z,100.00
2023-04-15T18:14:30.660Z,100.00
2023-04-15T18:17:04.527Z,100.00
2023-04-15T18:19:37.629Z,100.00
2023-04-15T18:22:07.709Z,100.00
2023-04-15T18:24:38.690Z,100.00
2023-04-15T18:27:08.745Z,100.00
2023-04-15T18:29:39.102Z,100.00
2023-04-15T18:32:08.976Z,100.00
2023-04-15T18:34:40.377Z,100.00
2023-04-15T18:37:10.182Z,100.00
2023-04-15T18:39:40.392Z,100.00
2023-04-15T18:42:10.299Z,100.00
2023-04-15T18:44:40.949Z,100.00
2023-04-15T18:47:10.834Z,100.00
2023-04-15T18:49:45.481Z,100.00
2023-04-15T18:52:21.156Z,100.00
2023-04-15T18:54:54.116Z,100.00
2023-04-15T18:57:30.865Z,100.00
2023-04-15T19:00:01.511Z,100.00
2023-04-15T19:02:31.510Z,100.00
2023-04-15T19:05:04.853Z,100.00
2023-04-15T19:07:34.652Z,100.00
2023-04-15T19:10:05.341Z,100.00
2023-04-15T19:12:36.741Z,100.00
2023-04-15T19:15:07.563Z,100.00
2023-04-15T19:17:37.318Z,100.00
2023-04-15T19:20:09.930Z,100.00
2023-04-15T19:22:39.952Z,100.00
2023-04-15T19:25:10.631Z,100.00
2023-04-15T19:27:40.609Z,100.00
2023-04-15T19:30:11.283Z,100.00
2023-04-15T19:32:41.027Z,100.00
2023-04-15T19:35:12.994Z,100.00
2023-04-15T19:37:43.042Z,100.00
2023-04-15T19:40:13.324Z,100.00
2023-04-15T19:42:43.151Z,100.00
2023-04-15T19:45:13.482Z,100.00
2023-04-15T19:47:46.513Z,100.00
2023-04-15T19:50:26.922Z,100.00
2023-04-15T19:53:00.659Z,100.00
2023-04-15T19:55:34.693Z,100.00
2023-04-15T19:58:07.745Z,100.00
2023-04-15T20:00:44.015Z,100.00
2023-04-15T20:03:17.271Z,100.00
2023-04-15T20:05:50.858Z,100.00
2023-04-15T20:08:21.965Z,100.00
2023-04-15T20:10:53.589Z,100.00
2023-04-15T20:13:25.978Z,100.00
2023-04-15T20:16:01.186Z,100.00
2023-04-15T20:18:31.923Z,100.00
2023-04-15T20:21:04.255Z,100.00
2023-04-15T20:23:37.959Z,100.00
2023-04-15T20:26:09.621Z,100.00
2023-04-15T20:28:39.293Z,100.00
2023-04-15T20:31:12.243Z,100.00
2023-04-15T20:33:43.077Z,100.00
2023-04-15T20:36:15.000Z,100.00
2023-04-15T20:38:44.756Z,100.00
2023-04-15T20:41:18.995Z,100.00
2023-04-15T20:43:52.419Z,100.00
2023-04-15T20:46:24.594Z,100.00
2023-04-15T20:48:56.584Z,100.00
2023-04-15T20:51:29.258Z,100.00
2023-04-15T20:54:00.059Z,100.00
2023-04-15T20:56:32.389Z,100.00
2023-04-15T20:59:05.324Z,100.00
2023-04-15T21:01:37.048Z,100.00
2023-04-15T21:04:08.482Z,100.00
2023-04-15T21:06:43.460Z,100.00
2023-04-15T21:09:15.405Z,100.00
2023-04-15T21:12:00.449Z,100.00
2023-04-15T21:14:31.373Z,100.00
2023-04-15T21:17:09.264Z,100.00
2023-04-15T21:19:40.755Z,100.00
2023-04-15T21:22:12.343Z,100.00
2023-04-15T21:24:42.089Z,100.00
2023-04-15T21:27:12.951Z,100.00
2023-04-15T21:29:42.821Z,100.00
2023-04-15T21:32:13.182Z,100.00
2023-04-15T21:34:42.844Z,100.00
2023-04-15T21:37:14.801Z,100.00
2023-04-15T21:39:44.390Z,100.00
2023-04-15T21:42:14.735Z,100.00
2023-04-15T21:44:44.443Z,100.00
2023-04-15T21:47:14.945Z,100.00
2023-04-15T21:49:44.932Z,100.00
2023-04-15T21:52:17.930Z,100.00
2023-04-15T21:54:48.318Z,100.00
2023-04-15T21:57:18.661Z,100.00
2023-04-15T21:59:48.341Z,100.00
2023-04-15T22:02:19.202Z,100.00
2023-04-15T22:04:48.881Z,100.00
2023-04-15T22:07:20.602Z,100.00
2023-04-15T22:09:50.321Z,100.00
2023-04-15T22:12:20.673Z,100.00
2023-04-15T22:14:50.460Z,100.00
2023-04-15T22:17:20.509Z,100.00
2023-04-15T22:19:50.129Z,100.00
2023-04-15T22:22:21.502Z,100.00
2023-04-15T22:24:56.273Z,100.00
2023-04-15T22:27:26.373Z,100.00
2023-04-15T22:29:56.193Z,100.00
2023-04-15T22:32:26.174Z,100.00
2023-04-15T22:34:55.751Z,100.00
2023-04-15T22:37:30.719Z,100.00
2023-04-15T22:40:01.871Z,100.00
2023-04-15T22:42:31.860Z,100.00
2023-04-15T22:45:01.335Z,100.00
2023-04-15T22:47:31.236Z,100.00
2023-04-15T22:50:01.103Z,100.00
2023-04-15T22:52:32.642Z,100.00
2023-04-15T22:55:02.421Z,100.00
2023-04-15T22:57:32.556Z,100.00
2023-04-15T23:00:02.087Z,100.00
2023-04-15T23:02:32.320Z,100.00
2023-04-15T23:05:04.221Z,100.00
2023-04-15T23:07:43.812Z,100.00
2023-04-15T23:10:13.347Z,100.00
2023-04-15T23:12:43.488Z,100.00
2023-04-15T23:15:13.341Z,100.00
2023-04-15T23:17:43.466Z,100.00
2023-04-15T23:20:13.599Z,100.00
2023-04-15T23:22:44.975Z,100.00
2023-04-15T23:25:14.608Z,100.00
2023-04-15T23:27:44.519Z,100.00
2023-04-15T23:30:14.474Z,100.00
2023-04-15T23:32:44.486Z,100.00
2023-04-15T23:35:14.139Z,100.00
2023-04-15T23:37:45.703Z,100.00
2023-04-15T23:40:15.957Z,100.00
2023-04-15T23:42:45.814Z,100.00
2023-04-15T23:45:15.293Z,100.00
2023-04-15T23:47:45.266Z,100.00
2023-04-15T23:50:14.898Z,100.00
2023-04-15T23:52:46.341Z,100.00
2023-04-15T23:55:15.998Z,100.00
2023-04-15T23:57:46.020Z,100.00
